LFRO 281600Z AUTO 23015KT 3800 -RADZ BR BKN006 OVC010 12/12 Q1009

ElémentsDécodage
LFRO Station météo située sur l'aérodrome de LANNION
281600Z émis le 28 du mois à 16h00 UTC
AUTO Bulletin édité par un automate
23015KT vent du 230°, 15 noeuds
3800 visibilité horizontale de 3800 mètres
-RADZ faible pluie, bruine
BR brume
BKN006 nuages morcelés (5/8 à 7/8) à 600 pieds
OVC010 couverture nuageuse totale (8/8) à 1000 pieds
12/12 température 12°C, point de rosée 12°C
 soit une humidité relative de 100%
Q1009 la pression au niveau de la mer (QNH) est de 1009 hPa